createdAt,value
2023-04-22T00:02:27.089Z,11.40
2023-04-22T00:04:54.214Z,11.40
2023-04-22T00:07:21.278Z,11.30
2023-04-22T00:09:48.184Z,11.20
2023-04-22T00:12:15.296Z,11.20
2023-04-22T00:14:42.205Z,11.10
2023-04-22T00:17:09.123Z,11.00
2023-04-22T00:19:37.462Z,11.00
2023-04-22T00:22:04.624Z,11.00
2023-04-22T00:24:31.530Z,10.90
2023-04-22T00:26:58.432Z,10.90
2023-04-22T00:29:25.955Z,10.90
2023-04-22T00:31:52.907Z,10.90
2023-04-22T00:34:20.098Z,10.90
2023-04-22T00:36:46.974Z,11.00
2023-04-22T00:39:14.167Z,11.00
2023-04-22T00:41:40.991Z,10.90
2023-04-22T00:44:11.791Z,10.90
2023-04-22T00:46:39.808Z,10.80
2023-04-22T00:49:08.204Z,10.80
2023-04-22T00:51:35.449Z,10.80
2023-04-22T00:54:03.447Z,10.70
2023-04-22T00:56:33.424Z,10.70
2023-04-22T00:59:00.498Z,10.70
2023-04-22T01:01:28.139Z,10.70
2023-04-22T01:03:56.513Z,10.70
2023-04-22T01:06:24.491Z,10.70
2023-04-22T01:08:51.661Z,10.60
2023-04-22T01:11:19.151Z,10.60
2023-04-22T01:13:46.571Z,10.60
2023-04-22T01:16:13.735Z,10.60
2023-04-22T01:18:40.637Z,10.50
2023-04-22T01:21:07.590Z,10.40
2023-04-22T01:23:34.777Z,10.30
2023-04-22T01:26:01.815Z,10.20
2023-04-22T01:28:29.113Z,10.20
2023-04-22T01:30:56.250Z,10.10
2023-04-22T01:33:23.765Z,10.00
2023-04-22T01:35:50.786Z,10.00
2023-04-22T01:38:17.591Z,9.90
2023-04-22T01:40:44.499Z,9.90
2023-04-22T01:43:11.454Z,9.90
2023-04-22T01:45:39.210Z,9.80
2023-04-22T01:52:34.674Z,9.70
2023-04-22T01:55:02.634Z,9.70
2023-04-22T01:57:29.576Z,9.70
2023-04-22T01:59:59.536Z,10.10
2023-04-22T02:02:27.813Z,9.50
2023-04-22T02:04:54.739Z,9.80
2023-04-22T02:07:22.068Z,9.60
2023-04-22T02:09:51.005Z,9.10
2023-04-22T02:12:17.941Z,9.00
2023-04-22T02:14:44.859Z,10.10
2023-04-22T02:17:12.962Z,8.90
2023-04-22T02:19:40.018Z,9.00
2023-04-22T02:22:07.186Z,9.80
2023-04-22T02:24:34.072Z,9.10
2023-04-22T02:27:01.587Z,9.20
2023-04-22T02:29:29.081Z,9.80
2023-04-22T02:32:00.270Z,9.60
2023-04-22T02:34:27.841Z,9.40
2023-04-22T02:36:54.937Z,9.80
2023-04-22T02:39:21.926Z,9.40
2023-04-22T02:41:49.327Z,9.40
2023-04-22T02:44:17.593Z,9.40
2023-04-22T02:46:44.580Z,9.40
2023-04-22T02:49:11.797Z,9.00
2023-04-22T02:51:40.668Z,9.20
2023-04-22T02:54:08.817Z,9.30
2023-04-22T02:56:36.569Z,9.10
2023-04-22T02:59:04.608Z,10.10
2023-04-22T03:01:32.403Z,9.00
2023-04-22T03:04:02.433Z,9.00
2023-04-22T03:06:29.937Z,9.00
2023-04-22T03:08:57.485Z,9.30
2023-04-22T03:11:24.822Z,9.10
2023-04-22T03:13:51.755Z,10.20
2023-04-22T03:16:18.828Z,9.40
2023-04-22T03:18:45.909Z,9.10
2023-04-22T03:21:14.992Z,9.20
2023-04-22T03:23:43.445Z,9.20
2023-04-22T03:26:14.908Z,8.90
2023-04-22T03:28:42.481Z,8.40
2023-04-22T03:31:09.754Z,8.40
2023-04-22T03:33:37.136Z,8.30
2023-04-22T03:36:11.926Z,8.40
2023-04-22T03:38:38.990Z,8.60
2023-04-22T03:41:06.161Z,8.70
2023-04-22T03:43:40.164Z,8.60
2023-04-22T03:46:11.137Z,8.60
2023-04-22T03:48:41.488Z,8.60
2023-04-22T03:51:13.960Z,8.70
2023-04-22T03:53:41.791Z,8.70
2023-04-22T03:56:11.299Z,8.70
2023-04-22T03:58:42.093Z,8.80
2023-04-22T04:01:10.410Z,8.70
2023-04-22T04:03:38.182Z,8.50
2023-04-22T04:06:06.426Z,8.40
2023-04-22T04:08:33.359Z,8.50
2023-04-22T04:11:00.762Z,8.70
2023-04-22T04:13:32.204Z,8.50
2023-04-22T04:16:12.793Z,8.70
2023-04-22T04:18:42.835Z,8.70
2023-04-22T04:21:11.153Z,9.30
2023-04-22T04:23:44.601Z,8.90
2023-04-22T04:26:12.297Z,8.90
2023-04-22T04:28:42.670Z,9.50
2023-04-22T04:31:09.788Z,9.80
2023-04-22T04:33:37.617Z,8.90
2023-04-22T04:36:05.344Z,8.90
2023-04-22T04:38:34.658Z,8.90
2023-04-22T04:41:02.335Z,8.90
2023-04-22T04:43:29.656Z,8.90
2023-04-22T04:46:05.012Z,9.70
2023-04-22T04:48:36.324Z,9.30
2023-04-22T04:51:08.060Z,9.00
2023-04-22T04:53:41.418Z,8.80
2023-04-22T04:56:08.454Z,8.80
2023-04-22T04:58:36.028Z,8.80
2023-04-22T05:01:10.761Z,8.80
2023-04-22T05:03:38.168Z,9.20
2023-04-22T05:06:05.952Z,9.50
2023-04-22T05:08:34.152Z,8.60
2023-04-22T05:11:06.238Z,8.70
2023-04-22T05:13:33.241Z,8.80
2023-04-22T05:16:00.596Z,8.90
2023-04-22T05:18:27.918Z,9.60
2023-04-22T05:20:59.361Z,9.00
2023-04-22T05:23:27.042Z,8.90
2023-04-22T05:25:56.457Z,9.00
2023-04-22T05:28:24.320Z,9.00
2023-04-22T05:30:54.978Z,9.00
2023-04-22T05:33:21.981Z,9.50
2023-04-22T05:35:51.525Z,10.20
2023-04-22T05:38:19.387Z,9.30
2023-04-22T05:40:46.290Z,9.20
2023-04-22T05:43:15.740Z,9.30
2023-04-22T05:45:47.750Z,9.20
2023-04-22T05:48:16.105Z,9.90
2023-04-22T05:50:54.292Z,9.30
2023-04-22T05:53:21.527Z,10.40
2023-04-22T05:55:48.659Z,9.70
2023-04-22T05:58:15.848Z,9.60
2023-04-22T06:01:09.223Z,10.50
2023-04-22T06:03:41.999Z,9.90
2023-04-22T06:06:09.437Z,9.90
2023-04-22T06:08:36.451Z,10.00
2023-04-22T06:11:03.432Z,10.20
2023-04-22T06:13:33.293Z,9.80
2023-04-22T06:16:01.269Z,10.40
2023-04-22T06:18:28.988Z,10.60
2023-04-22T06:20:56.318Z,11.10
2023-04-22T06:23:23.258Z,10.90
2023-04-22T06:25:50.359Z,11.80
2023-04-22T06:28:17.924Z,11.90
2023-04-22T06:30:46.501Z,11.70
2023-04-22T06:33:13.611Z,12.00
2023-04-22T06:35:40.520Z,12.30
2023-04-22T06:38:07.578Z,13.90
2023-04-22T06:40:43.545Z,12.50
2023-04-22T06:43:30.853Z,12.50
2023-04-22T06:46:20.763Z,12.50
2023-04-22T06:49:06.436Z,12.50
2023-04-22T06:51:51.965Z,12.40
2023-04-22T06:54:19.140Z,12.30
2023-04-22T06:56:46.074Z,12.30
2023-04-22T06:59:13.355Z,13.20
2023-04-22T07:01:40.345Z,12.20
2023-04-22T07:04:07.467Z,12.40
2023-04-22T07:06:35.136Z,12.80
2023-04-22T07:09:02.665Z,12.40
2023-04-22T07:11:31.498Z,12.60
2023-04-22T07:14:02.824Z,12.90
2023-04-22T07:16:29.826Z,12.90
2023-04-22T07:18:57.291Z,13.00
2023-04-22T07:21:24.248Z,13.20
2023-04-22T07:23:51.894Z,13.40
2023-04-22T07:26:19.146Z,13.60
2023-04-22T07:28:46.107Z,13.80
2023-04-22T07:31:12.974Z,14.00
2023-04-22T07:33:40.517Z,14.30
2023-04-22T07:36:07.983Z,14.20
2023-04-22T07:38:35.109Z,14.40
2023-04-22T07:41:02.096Z,14.60
2023-04-22T07:43:29.107Z,14.70
2023-04-22T07:45:56.124Z,15.00
2023-04-22T07:48:23.280Z,15.10
2023-04-22T07:50:50.194Z,15.30
2023-04-22T07:53:17.764Z,15.40
2023-04-22T07:55:45.031Z,15.50
2023-04-22T07:58:11.993Z,15.70
2023-04-22T08:00:39.019Z,15.90
2023-04-22T08:03:06.061Z,16.00
2023-04-22T08:05:33.194Z,16.20
2023-04-22T08:08:01.897Z,16.30
2023-04-22T08:10:28.897Z,16.40
2023-04-22T08:12:55.981Z,16.50
2023-04-22T08:15:23.566Z,16.60
2023-04-22T08:17:50.784Z,16.70
2023-04-22T08:20:18.310Z,16.70
2023-04-22T08:22:45.631Z,16.70
2023-04-22T08:25:13.264Z,16.70
2023-04-22T08:27:40.404Z,16.90
2023-04-22T08:30:08.098Z,17.00
2023-04-22T08:32:35.455Z,17.00
2023-04-22T08:35:05.514Z,17.10
2023-04-22T08:37:32.853Z,17.30
2023-04-22T08:39:59.793Z,17.60
2023-04-22T08:42:27.571Z,17.90
2023-04-22T08:44:54.912Z,18.10
2023-04-22T08:47:22.043Z,18.00
2023-04-22T08:49:51.018Z,18.20
2023-04-22T08:52:18.287Z,18.40
2023-04-22T08:54:45.289Z,18.60
2023-04-22T08:57:14.203Z,18.90
2023-04-22T08:59:41.978Z,19.20
2023-04-22T09:02:14.309Z,19.30
2023-04-22T09:04:43.322Z,19.30
2023-04-22T09:07:12.043Z,19.40
2023-04-22T09:09:39.562Z,19.50
2023-04-22T09:12:06.733Z,19.50
2023-04-22T09:14:34.273Z,19.50
2023-04-22T09:17:03.314Z,19.50
2023-04-22T09:19:30.383Z,19.60
2023-04-22T09:22:00.687Z,19.70
2023-04-22T09:24:27.619Z,19.80
2023-04-22T09:26:57.489Z,20.00
2023-04-22T09:29:30.915Z,20.00
2023-04-22T09:31:58.157Z,20.20
2023-04-22T09:34:27.925Z,20.30
2023-04-22T09:36:54.880Z,20.40
2023-04-22T09:39:23.988Z,20.50
2023-04-22T09:41:55.071Z,20.50
2023-04-22T09:44:22.091Z,20.50
2023-04-22T09:46:50.837Z,20.50
2023-04-22T09:49:17.944Z,20.60
2023-04-22T09:51:45.061Z,20.70
2023-04-22T09:54:12.163Z,20.90
2023-04-22T09:56:43.311Z,21.00
2023-04-22T09:59:10.520Z,20.90
2023-04-22T10:01:41.915Z,20.90
2023-04-22T10:04:10.911Z,21.10
2023-04-22T10:06:38.500Z,21.30
2023-04-22T10:09:07.516Z,21.50
2023-04-22T10:11:36.077Z,21.70
2023-04-22T10:14:03.297Z,21.90
2023-04-22T10:16:33.672Z,22.10
2023-04-22T10:19:04.576Z,22.20
2023-04-22T10:21:33.082Z,22.30
2023-04-22T10:24:00.848Z,22.50
2023-04-22T10:26:42.867Z,22.60
2023-04-22T10:29:16.820Z,22.80
2023-04-22T10:31:45.828Z,23.10
2023-04-22T10:34:14.704Z,23.20
2023-04-22T10:36:59.380Z,23.30
2023-04-22T10:39:28.365Z,23.20
2023-04-22T10:42:07.174Z,22.90
2023-04-22T10:44:46.052Z,22.70
2023-04-22T10:47:24.163Z,22.50
2023-04-22T10:49:51.723Z,22.40
2023-04-22T10:52:29.459Z,22.30
2023-04-22T10:54:58.270Z,22.20
2023-04-22T10:57:36.297Z,22.10
2023-04-22T11:00:31.014Z,22.00
2023-04-22T11:03:05.704Z,21.70
2023-04-22T11:05:34.251Z,21.40
2023-04-22T11:08:12.349Z,21.30
2023-04-22T11:10:47.595Z,21.10
2023-04-22T11:13:21.032Z,21.00
2023-04-22T11:15:51.123Z,20.80
2023-04-22T11:18:24.968Z,20.70
2023-04-22T11:20:53.656Z,20.70
2023-04-22T11:23:25.175Z,20.80
2023-04-22T11:26:03.881Z,20.80
2023-04-22T11:28:31.599Z,20.90
2023-04-22T11:31:06.565Z,20.90
2023-04-22T11:33:34.842Z,20.90
2023-04-22T11:36:02.363Z,20.90
2023-04-22T11:38:29.471Z,21.00
2023-04-22T11:40:58.580Z,21.20
2023-04-22T11:43:26.051Z,21.30
2023-04-22T11:45:56.173Z,21.50
2023-04-22T11:48:23.348Z,21.50
2023-04-22T11:51:06.715Z,21.60
2023-04-22T11:53:33.606Z,21.50
2023-04-22T11:56:04.116Z,21.40
2023-04-22T11:58:31.632Z,21.30
2023-04-22T12:00:59.702Z,21.20
2023-04-22T12:03:29.052Z,21.10
2023-04-22T12:06:01.414Z,20.90
2023-04-22T12:08:34.149Z,20.90
2023-04-22T12:11:04.495Z,20.80
2023-04-22T12:13:43.358Z,20.90
2023-04-22T12:16:15.641Z,20.80
2023-04-22T12:18:55.717Z,20.80
2023-04-22T12:21:25.094Z,20.80
2023-04-22T12:23:56.297Z,20.90
2023-04-22T12:26:26.514Z,21.50
2023-04-22T12:28:55.938Z,22.70
2023-04-22T12:31:23.013Z,23.80
2023-04-22T12:33:50.325Z,24.70
2023-04-22T12:36:20.883Z,24.70
2023-04-22T12:38:48.064Z,24.40
2023-04-22T12:41:16.019Z,24.20
2023-04-22T12:43:42.917Z,23.90
2023-04-22T12:46:10.626Z,23.60
2023-04-22T12:48:37.924Z,23.50
2023-04-22T12:51:06.480Z,23.40
2023-04-22T12:53:34.115Z,23.60
2023-04-22T12:56:23.980Z,23.50
2023-04-22T12:58:54.137Z,23.50
2023-04-22T13:01:23.528Z,23.30
2023-04-22T13:03:53.962Z,23.40
2023-04-22T13:06:25.605Z,23.70
2023-04-22T13:08:52.772Z,24.00
2023-04-22T13:11:25.391Z,24.30
2023-04-22T13:13:53.193Z,24.70
2023-04-22T13:16:21.845Z,24.90
2023-04-22T13:18:53.673Z,24.90
2023-04-22T13:21:20.841Z,25.00
2023-04-22T13:23:48.001Z,24.50
2023-04-22T13:26:15.285Z,24.30
2023-04-22T13:28:42.576Z,24.10
2023-04-22T13:31:10.487Z,24.00
2023-04-22T13:33:37.470Z,23.80
2023-04-22T13:36:04.604Z,23.90
2023-04-22T13:38:32.102Z,23.90
2023-04-22T13:41:14.344Z,24.00
2023-04-22T13:43:41.205Z,23.80
2023-04-22T13:46:08.181Z,23.60
2023-04-22T13:48:35.225Z,23.30
2023-04-22T13:51:02.396Z,23.20
2023-04-22T13:53:29.585Z,23.10
2023-04-22T13:55:56.632Z,22.50
2023-04-22T13:58:23.676Z,23.30
2023-04-22T14:00:50.747Z,23.40
2023-04-22T14:03:18.017Z,23.40
2023-04-22T14:05:45.352Z,23.50
2023-04-22T14:08:13.037Z,23.40
2023-04-22T14:10:39.934Z,23.40
2023-04-22T14:13:07.066Z,23.30
2023-04-22T14:15:33.963Z,23.20
2023-04-22T14:18:00.919Z,23.20
2023-04-22T14:20:27.988Z,23.10
2023-04-22T14:22:55.240Z,23.20
2023-04-22T14:25:23.442Z,23.10
2023-04-22T14:27:50.612Z,23.20
2023-04-22T14:30:17.941Z,23.20
2023-04-22T14:32:44.960Z,23.10
2023-04-22T14:35:12.175Z,22.80
2023-04-22T14:37:41.070Z,22.80
2023-04-22T14:40:14.932Z,22.70
2023-04-22T14:42:41.957Z,22.50
2023-04-22T14:45:09.522Z,22.40
2023-04-22T14:47:36.847Z,22.40
2023-04-22T14:50:04.287Z,22.40
2023-04-22T14:52:31.833Z,22.30
2023-04-22T14:55:00.196Z,22.20
2023-04-22T14:57:30.999Z,22.00
2023-04-22T14:59:58.121Z,21.80
2023-04-22T15:02:25.820Z,21.70
2023-04-22T15:04:53.451Z,21.50
2023-04-22T15:07:21.216Z,21.40
2023-04-22T15:09:48.342Z,21.20
2023-04-22T15:12:15.339Z,21.20
2023-04-22T15:14:43.703Z,21.10
2023-04-22T15:17:12.002Z,21.00
2023-04-22T15:19:40.514Z,21.00
2023-04-22T15:22:07.924Z,21.00
2023-04-22T15:24:35.078Z,20.90
2023-04-22T15:27:03.432Z,20.80
2023-04-22T15:29:33.087Z,20.60
2023-04-22T15:32:02.311Z,20.30
2023-04-22T15:34:29.441Z,20.20
2023-04-22T15:36:56.598Z,20.10
2023-04-22T15:39:24.861Z,20.00
2023-04-22T15:41:52.008Z,20.00
2023-04-22T15:44:19.306Z,19.80
2023-04-22T15:46:46.885Z,19.60
2023-04-22T15:49:14.869Z,19.40
2023-04-22T15:51:42.266Z,19.20
2023-04-22T15:54:09.191Z,19.20
2023-04-22T15:56:36.393Z,19.20
2023-04-22T15:59:03.420Z,19.10
2023-04-22T16:01:30.453Z,18.90
2023-04-22T16:03:57.699Z,18.90
2023-04-22T16:06:25.343Z,18.70
2023-04-22T16:08:52.570Z,18.60
2023-04-22T16:11:19.462Z,18.50
2023-04-22T16:13:46.571Z,18.50
2023-04-22T16:16:13.633Z,18.40
2023-04-22T16:18:43.625Z,18.30
2023-04-22T16:21:14.603Z,18.30
2023-04-22T16:23:42.191Z,18.20
2023-04-22T16:26:09.352Z,18.10
2023-04-22T16:28:36.269Z,17.90
2023-04-22T16:31:03.282Z,17.90
2023-04-22T16:33:30.322Z,17.70
2023-04-22T16:35:57.586Z,17.70
2023-04-22T16:38:24.638Z,17.60
2023-04-22T16:40:54.245Z,17.50
2023-04-22T16:43:21.317Z,17.40
2023-04-22T16:45:48.807Z,17.40
2023-04-22T16:48:16.109Z,17.40
2023-04-22T16:50:43.117Z,17.30
2023-04-22T16:53:11.819Z,17.20
2023-04-22T16:55:39.063Z,17.20
2023-04-22T16:58:06.003Z,17.10
2023-04-22T17:00:32.947Z,17.10
2023-04-22T17:03:01.172Z,17.00
2023-04-22T17:05:28.232Z,17.00
2023-04-22T17:07:55.295Z,17.00
2023-04-22T17:10:22.375Z,17.00
2023-04-22T17:12:49.738Z,17.00
2023-04-22T17:15:17.030Z,17.00
2023-04-22T17:17:44.059Z,17.00
2023-04-22T17:20:11.299Z,16.90
2023-04-22T17:22:38.417Z,16.90
2023-04-22T17:25:06.101Z,16.90
2023-04-22T17:27:33.040Z,16.90
2023-04-22T17:29:59.877Z,16.90
2023-04-22T17:32:27.030Z,17.00
2023-04-22T17:34:54.182Z,16.90
2023-04-22T17:37:21.050Z,16.90
2023-04-22T17:39:47.978Z,16.90
2023-04-22T17:42:14.949Z,16.90
2023-04-22T17:44:42.174Z,16.90
2023-04-22T17:47:09.431Z,16.90
2023-04-22T17:49:36.549Z,16.80
2023-04-22T17:52:03.528Z,16.80
2023-04-22T17:54:30.402Z,16.80
2023-04-22T17:56:57.422Z,16.70
2023-04-22T17:59:24.335Z,16.70
2023-04-22T18:01:51.746Z,16.70
2023-04-22T18:04:18.745Z,16.60
2023-04-22T18:06:46.108Z,16.60
2023-04-22T18:09:14.921Z,16.60
2023-04-22T18:11:42.794Z,16.70
2023-04-22T18:14:12.001Z,16.70
2023-04-22T18:16:40.443Z,16.70
2023-04-22T18:19:07.823Z,16.70
2023-04-22T18:21:36.859Z,16.60
2023-04-22T18:24:05.878Z,16.60
2023-04-22T18:26:33.269Z,16.50
2023-04-22T18:29:02.109Z,16.50
2023-04-22T18:31:30.731Z,16.50
2023-04-22T18:33:58.326Z,16.40
2023-04-22T18:36:28.077Z,16.40
2023-04-22T18:38:55.165Z,16.30
2023-04-22T18:41:22.469Z,16.70
2023-04-22T18:43:50.037Z,16.30
2023-04-22T18:46:17.760Z,16.20
2023-04-22T18:48:45.859Z,16.30
2023-04-22T18:51:14.597Z,16.20
2023-04-22T18:53:41.978Z,16.20
2023-04-22T18:56:09.262Z,16.30
2023-04-22T18:58:39.444Z,16.20
2023-04-22T19:01:07.969Z,16.20
2023-04-22T19:03:35.818Z,16.10
2023-04-22T19:06:04.821Z,16.10
2023-04-22T19:08:31.934Z,16.10
2023-04-22T19:11:00.757Z,16.10
2023-04-22T19:13:30.268Z,16.10
2023-04-22T19:16:00.628Z,16.10
2023-04-22T19:18:27.856Z,16.10
2023-04-22T19:20:56.524Z,16.00
2023-04-22T19:23:25.470Z,16.00
2023-04-22T19:25:53.129Z,16.00
2023-04-22T19:28:21.930Z,16.00
2023-04-22T19:30:50.548Z,16.00
2023-04-22T19:33:21.116Z,15.70
2023-04-22T19:35:48.649Z,16.00
2023-04-22T19:38:16.430Z,16.00
2023-04-22T19:40:44.405Z,15.80
2023-04-22T19:43:15.372Z,15.90
2023-04-22T19:45:42.765Z,15.90
2023-04-22T19:48:10.776Z,15.90
2023-04-22T19:50:39.489Z,15.90
2023-04-22T19:53:08.604Z,15.80
2023-04-22T19:55:38.810Z,15.90
2023-04-22T19:58:11.743Z,15.90
2023-04-22T20:00:39.811Z,15.90
2023-04-22T20:03:07.266Z,15.90
2023-04-22T20:05:37.234Z,15.80
2023-04-22T20:08:07.198Z,15.80
2023-04-22T20:10:35.792Z,15.80
2023-04-22T20:13:05.651Z,15.70
2023-04-22T20:15:33.228Z,15.70
2023-04-22T20:18:00.889Z,15.70
2023-04-22T20:20:28.267Z,15.70
2023-04-22T20:22:58.777Z,15.70
2023-04-22T20:25:26.184Z,15.70
2023-04-22T20:27:54.004Z,15.70
2023-04-22T20:30:21.925Z,15.60
2023-04-22T20:32:52.445Z,15.50
2023-04-22T20:35:20.545Z,15.50
2023-04-22T20:37:51.023Z,15.50
2023-04-22T20:40:20.359Z,15.50
2023-04-22T20:42:47.814Z,15.50
2023-04-22T20:45:15.977Z,15.60
2023-04-22T20:47:43.257Z,15.60
2023-04-22T20:50:13.590Z,15.50
2023-04-22T20:52:40.954Z,15.40
2023-04-22T20:55:08.447Z,15.40
2023-04-22T20:57:35.678Z,15.30
2023-04-22T21:00:05.462Z,15.30
2023-04-22T21:02:35.391Z,15.30
2023-04-22T21:05:03.995Z,15.30
2023-04-22T21:07:32.054Z,15.30
2023-04-22T21:09:59.379Z,15.30
2023-04-22T21:12:27.747Z,15.30
2023-04-22T21:14:56.929Z,15.30
2023-04-22T21:17:51.554Z,15.20
2023-04-22T21:20:20.049Z,15.10
2023-04-22T21:22:47.594Z,15.10
2023-04-22T21:25:22.228Z,15.10
2023-04-22T21:27:49.733Z,15.10
2023-04-22T21:30:18.730Z,15.10
2023-04-22T21:32:47.302Z,15.00
2023-04-22T21:35:14.782Z,14.90
2023-04-22T21:37:44.086Z,14.80
2023-04-22T21:40:12.949Z,14.70
2023-04-22T21:42:40.052Z,14.80
2023-04-22T21:45:07.971Z,14.80
2023-04-22T21:47:35.159Z,14.80
2023-04-22T21:50:02.661Z,14.80
2023-04-22T21:52:29.768Z,14.80
2023-04-22T21:54:56.917Z,14.80
2023-04-22T21:57:23.934Z,14.80
2023-04-22T21:59:52.745Z,14.70
2023-04-22T22:02:21.351Z,14.40
2023-04-22T22:04:48.425Z,14.70
2023-04-22T22:07:17.567Z,14.70
2023-04-22T22:09:49.216Z,14.60
2023-04-22T22:12:16.668Z,14.60
2023-04-22T22:14:44.046Z,14.60
2023-04-22T22:17:12.454Z,14.70
2023-04-22T22:19:39.463Z,14.60
2023-04-22T22:22:06.326Z,14.60
2023-04-22T22:24:33.376Z,14.80
2023-04-22T22:27:01.650Z,14.50
2023-04-22T22:29:28.653Z,14.50
2023-04-22T22:31:56.245Z,14.50
2023-04-22T22:34:23.407Z,14.50
2023-04-22T22:36:50.942Z,14.50
2023-04-22T22:39:18.111Z,14.50
2023-04-22T22:41:45.160Z,14.50
2023-04-22T22:44:13.130Z,14.50
2023-04-22T22:46:40.765Z,14.50
2023-04-22T22:49:08.094Z,14.50
2023-04-22T22:51:37.454Z,14.40
2023-04-22T22:54:05.215Z,14.40
2023-04-22T22:56:33.308Z,14.40
2023-04-22T22:59:00.639Z,14.40
2023-04-22T23:01:27.608Z,14.50
2023-04-22T23:03:54.920Z,14.50
2023-04-22T23:06:22.029Z,14.40
2023-04-22T23:08:49.030Z,14.40
2023-04-22T23:11:18.941Z,14.40
2023-04-22T23:13:47.905Z,14.40
2023-04-22T23:16:14.982Z,14.40
2023-04-22T23:18:43.308Z,14.40
2023-04-22T23:21:12.316Z,14.30
2023-04-22T23:23:41.024Z,14.30
2023-04-22T23:26:09.375Z,14.30
2023-04-22T23:28:36.586Z,14.30
2023-04-22T23:31:06.474Z,14.30
2023-04-22T23:33:35.445Z,14.20
2023-04-22T23:36:05.470Z,14.20
2023-04-22T23:38:32.471Z,14.20
2023-04-22T23:40:59.407Z,14.20
2023-04-22T23:43:27.697Z,14.10
2023-04-22T23:45:54.678Z,14.10
2023-04-22T23:48:21.718Z,14.00
2023-04-22T23:50:49.463Z,14.00
2023-04-22T23:53:16.632Z,14.00
2023-04-22T23:55:44.171Z,14.00
2023-04-22T23:58:12.170Z,14.10
